Meath Environmental Platform

Observations for Trim Market St

Time AQI Temp °C Hum % Pres Pa CO μg/m³ H₂S μg/m³ NO μg/m³ NO₂ μg/m³ O₃ μg/m³ SO₂ μg/m³ PM1 μg/m³ PM2.5 μg/m³ PM10 μg/m³
Monday 24 August 2026
13:56 2 36.7 24 66,612 0 0 1 30.31 108.47 0 0.71 4.14 4.55
13:51 2 36.7 24 66,574 0 0 0.93 29.49 106.52 0 1.43 6.33 6.97
13:50 2 36.7 24 66,574 0 0 0.93 42.34 107.21 0 2.85 6.88 7.57
13:49 2 36.8 24 66,578 0 0 0.95 33.65 130.3 0 2.14 5.77 7.52
13:48 2 36.8 24 66,580 0 0 0.88 33.15 117.97 0 2.14 6.89 7.58
13:47 2 36.8 24 66,580 0 0 0.93 27.39 110.74 0 1.43 6.89 7.58
13:46 2 36.9 24 66,584 0 0 0.93 31.55 107.65 0 1.43 5.78 6.36
13:45 2 37 24 66,586 0 0 0.92 33.48 113.63 0 1.43 5.77 6.35
13:43 2 36.9 24 66,592 0 0 0.88 36.02 126.78 0 2.14 6.3 7.52
13:41 2 36.8 24 66,592 0 0 0.81 39.31 123.44 0 2.14 6.86 7.54
13:40 2 36.7 24 66,590 0 0 0.8 36.58 122.6 0 0.71 4.65 5.12
13:36 2 36.3 25 66,566 0 0 0.83 35.08 127.31 0 2.14 6.82 7.51
13:34 2 36.2 25 66,554 0 0.47 0.82 33.85 136.38 0 1.43 5.19 5.71
13:29 2 36.1 24 66,511 0 1.7 0.83 33.6 136.1 0 1.43 5.76 6.34
13:27 2 36.2 24 66,552 0 0 0.79 30.45 134.35 0 2.85 6.87 7.52
13:21 2 36.9 23 66,629 0 0 0.88 35.97 131 0 2.85 6.91 7.52
13:20 2 37 23 66,645 0 0 0.87 35.69 130.59 0 1.43 5.82 6.4
13:19 2 37.1 23 66,635 0 0 0.87 33.85 128.49 0.4 2.14 6.37 7.52
13:18 2 37.1 23 66,621 0 0 0.83 38.56 121.76 0.01 1.43 5.27 5.8
13:17 2 37.2 23 66,659 0 0 0.88 32.48 129.97 0 2.14 6.38 6.62